Eaton, Indiana
Current Conditions -  °F | °C
As of 9:53 PM on Wednesday 26 Nov 2014 (Local Time) from KMIE Reporting Station
Overcast Overcast  
Wind Chill: 22°   Ceiling: 1800
Heat Index: 28°   Visibility: 10mi
Dew Point: 22°   Wind: 6mph
Humidity: 78%   Direction: 30°NNE
Pressure: 30.08"   Gusts: NA
Location:  40.34°N, 85.35°W
Report Text: KMIE 270253Z 03005KT 10SM OVC018 M02/M06 A3008 RMK AO2 SLP194 T10221056 53004
Loading
Personal Weather Stations






























Interactive Weather Map New forecast layout! Learn more

10-Day Weather Forecast

Advertisements
Track Severe Weather on mobile